createdAt,value
2022-10-22T00:02:07.669Z,23.59
2022-10-22T00:04:35.787Z,23.49
2022-10-22T00:07:03.765Z,23.77
2022-10-22T00:09:31.646Z,24.21
2022-10-22T00:11:59.354Z,24.09
2022-10-22T00:14:27.168Z,24.13
2022-10-22T00:16:56.322Z,24.63
2022-10-22T00:19:25.375Z,24.79
2022-10-22T00:21:53.171Z,24.32
2022-10-22T00:24:20.934Z,24.05
2022-10-22T00:26:48.715Z,24.63
2022-10-22T00:29:18.672Z,23.90
2022-10-22T00:31:49.745Z,24.59
2022-10-22T00:34:17.942Z,24.38
2022-10-22T00:36:47.326Z,23.93
2022-10-22T00:39:16.180Z,23.89
2022-10-22T00:41:44.288Z,22.15
2022-10-22T00:44:45.281Z,23.42
2022-10-22T00:47:13.465Z,24.07
2022-10-22T00:49:42.594Z,23.84
2022-10-22T00:52:12.465Z,22.74
2022-10-22T00:54:40.711Z,22.73
2022-10-22T00:57:08.593Z,22.21
2022-10-22T00:59:37.705Z,23.53
2022-10-22T01:02:05.493Z,22.62
2022-10-22T01:04:33.966Z,22.45
2022-10-22T01:07:02.074Z,22.00
2022-10-22T01:09:35.571Z,22.64
2022-10-22T01:12:06.329Z,22.97
2022-10-22T01:14:37.541Z,22.48
2022-10-22T01:17:08.184Z,22.52
2022-10-22T01:19:45.785Z,23.13
2022-10-22T01:22:19.855Z,22.90
2022-10-22T01:24:59.777Z,23.17
2022-10-22T01:27:33.456Z,22.80
2022-10-22T01:30:05.297Z,24.08
2022-10-22T01:32:37.598Z,23.54
2022-10-22T01:35:08.888Z,22.94
2022-10-22T01:37:39.777Z,23.18
2022-10-22T01:40:09.411Z,22.89
2022-10-22T01:42:37.162Z,24.06
2022-10-22T01:45:12.948Z,23.68
2022-10-22T01:47:48.319Z,24.18
2022-10-22T01:50:33.646Z,23.74
2022-10-22T01:53:27.500Z,24.50
2022-10-22T01:56:11.066Z,24.14
2022-10-22T01:58:43.786Z,24.21
2022-10-22T02:01:18.620Z,24.33
2022-10-22T02:03:49.777Z,24.28
2022-10-22T02:06:20.541Z,24.52
2022-10-22T02:08:49.901Z,24.51
2022-10-22T02:11:17.962Z,24.49
2022-10-22T02:13:47.873Z,24.55
2022-10-22T02:16:19.905Z,24.41
2022-10-22T02:18:50.338Z,23.55
2022-10-22T02:21:18.126Z,23.94
2022-10-22T02:23:46.678Z,23.77
2022-10-22T02:26:18.074Z,23.49
2022-10-22T02:28:50.736Z,24.01
2022-10-22T02:31:24.048Z,24.09
2022-10-22T02:33:54.246Z,24.20
2022-10-22T02:36:22.476Z,23.96
2022-10-22T02:38:52.301Z,23.88
2022-10-22T02:41:20.320Z,24.15
2022-10-22T02:43:51.970Z,23.52
2022-10-22T02:46:21.444Z,23.62
2022-10-22T02:48:49.160Z,23.57
2022-10-22T02:51:16.915Z,23.44
2022-10-22T02:53:44.629Z,23.48
2022-10-22T02:56:12.593Z,23.86
2022-10-22T02:58:40.372Z,23.22
2022-10-22T03:01:09.513Z,23.90
2022-10-22T03:03:41.355Z,24.06
2022-10-22T03:06:10.035Z,24.22
2022-10-22T03:08:37.775Z,24.26
2022-10-22T03:11:05.508Z,24.31
2022-10-22T03:13:33.228Z,23.64
2022-10-22T03:16:01.028Z,23.96
2022-10-22T03:18:29.060Z,23.96
2022-10-22T03:21:05.837Z,23.81
2022-10-22T03:23:33.910Z,23.96
2022-10-22T03:26:01.918Z,23.92
2022-10-22T03:28:29.908Z,24.26
2022-10-22T03:30:57.636Z,24.37
2022-10-22T03:33:25.336Z,24.39
2022-10-22T03:35:53.152Z,23.65
2022-10-22T03:38:22.350Z,24.27
2022-10-22T03:40:50.120Z,24.55
2022-10-22T03:43:18.108Z,24.55
2022-10-22T03:45:45.819Z,23.99
2022-10-22T03:48:13.510Z,23.35
2022-10-22T03:50:41.232Z,23.80
2022-10-22T03:53:10.572Z,23.89
2022-10-22T03:55:41.858Z,24.03
2022-10-22T03:58:09.568Z,23.77
2022-10-22T04:00:37.659Z,23.43
2022-10-22T04:03:05.714Z,23.11
2022-10-22T04:08:01.769Z,23.36
2022-10-22T04:10:29.542Z,23.36
2022-10-22T04:12:58.806Z,21.47
2022-10-22T04:15:29.298Z,22.94
2022-10-22T04:17:57.190Z,22.75
2022-10-22T04:20:24.961Z,22.61
2022-10-22T04:22:52.671Z,22.03
2022-10-22T04:25:20.397Z,22.37
2022-10-22T04:27:48.112Z,22.76
2022-10-22T04:30:17.225Z,22.65
2022-10-22T04:32:44.967Z,22.81
2022-10-22T04:35:12.793Z,23.06
2022-10-22T04:37:40.560Z,23.02
2022-10-22T04:40:09.789Z,23.20
2022-10-22T04:42:37.603Z,23.61
2022-10-22T04:45:05.934Z,23.08
2022-10-22T04:47:34.974Z,23.77
2022-10-22T04:50:03.041Z,22.61
2022-10-22T04:52:32.220Z,23.14
2022-10-22T04:54:59.897Z,23.18
2022-10-22T04:57:30.961Z,23.65
2022-10-22T04:59:58.672Z,22.54
2022-10-22T05:02:26.437Z,22.60
2022-10-22T05:04:55.481Z,23.40
2022-10-22T05:07:23.751Z,23.77
2022-10-22T05:09:51.425Z,23.56
2022-10-22T05:12:19.154Z,23.56
2022-10-22T05:14:46.874Z,23.26
2022-10-22T05:17:14.664Z,23.16
2022-10-22T05:19:42.354Z,23.25
2022-10-22T05:22:11.467Z,22.98
2022-10-22T05:24:39.256Z,22.39
2022-10-22T05:27:07.016Z,22.87
2022-10-22T05:29:34.821Z,22.26
2022-10-22T05:32:02.493Z,22.88
2022-10-22T05:34:30.233Z,23.09
2022-10-22T05:36:57.964Z,23.07
2022-10-22T05:39:27.235Z,22.58
2022-10-22T05:41:54.946Z,23.01
2022-10-22T05:44:22.667Z,22.96
2022-10-22T05:46:50.410Z,23.49
2022-10-22T05:49:18.127Z,23.44
2022-10-22T05:51:47.987Z,23.41
2022-10-22T05:54:18.867Z,23.42
2022-10-22T05:56:48.053Z,23.73
2022-10-22T05:59:15.768Z,23.53
2022-10-22T06:01:44.333Z,23.54
2022-10-22T06:04:13.741Z,23.77
2022-10-22T06:06:44.430Z,23.58
2022-10-22T06:09:16.046Z,22.98
2022-10-22T06:11:43.918Z,23.23
2022-10-22T06:14:13.337Z,23.11
2022-10-22T06:16:41.639Z,23.07
2022-10-22T06:19:10.526Z,23.42
2022-10-22T06:21:38.649Z,22.85
2022-10-22T06:24:07.448Z,22.41
2022-10-22T06:26:35.145Z,22.85
2022-10-22T06:29:03.701Z,22.87
2022-10-22T06:31:36.692Z,22.66
2022-10-22T06:34:04.902Z,23.05
2022-10-22T06:36:32.812Z,23.43
2022-10-22T06:39:00.591Z,23.34
2022-10-22T06:41:28.906Z,21.40
2022-10-22T06:43:58.306Z,21.98
2022-10-22T06:46:26.557Z,21.44
2022-10-22T06:48:57.521Z,22.80
2022-10-22T06:51:25.509Z,22.74
2022-10-22T06:53:54.076Z,22.13
2022-10-22T06:56:23.129Z,22.98
2022-10-22T06:58:51.696Z,22.03
2022-10-22T07:01:21.604Z,22.72
2022-10-22T07:03:51.391Z,23.31
2022-10-22T07:06:21.388Z,23.89
2022-10-22T07:08:49.512Z,23.60
2022-10-22T07:11:19.024Z,23.30
2022-10-22T07:13:47.658Z,23.98
2022-10-22T07:16:16.124Z,22.90
2022-10-22T07:18:44.572Z,23.92
2022-10-22T07:21:13.669Z,24.23
2022-10-22T07:23:42.862Z,24.14
2022-10-22T07:26:10.918Z,24.03
2022-10-22T07:28:39.868Z,22.97
2022-10-22T07:31:08.418Z,23.73
2022-10-22T07:33:36.771Z,23.16
2022-10-22T07:36:06.686Z,23.70
2022-10-22T07:38:34.995Z,24.18
2022-10-22T07:41:15.587Z,24.05
2022-10-22T07:43:43.805Z,24.66
2022-10-22T07:46:11.828Z,24.31
2022-10-22T07:48:44.566Z,23.68
2022-10-22T07:51:12.346Z,23.93
2022-10-22T07:53:40.299Z,23.28
2022-10-22T07:56:09.753Z,23.64
2022-10-22T07:58:37.609Z,23.19
2022-10-22T08:01:06.552Z,23.48
2022-10-22T08:03:34.785Z,23.56
2022-10-22T08:06:02.867Z,23.86
2022-10-22T08:08:31.231Z,24.00
2022-10-22T08:11:01.852Z,23.75
2022-10-22T08:13:31.636Z,24.71
2022-10-22T08:16:00.265Z,24.89
2022-10-22T08:18:28.765Z,24.64
2022-10-22T08:20:56.673Z,24.60
2022-10-22T08:23:27.462Z,24.11
2022-10-22T08:25:57.251Z,24.49
2022-10-22T08:28:25.099Z,24.19
2022-10-22T08:30:54.269Z,24.92
2022-10-22T08:33:22.326Z,24.78
2022-10-22T08:35:50.611Z,23.63
2022-10-22T08:38:18.614Z,24.29
2022-10-22T08:40:50.835Z,25.00
2022-10-22T08:43:37.828Z,24.50
2022-10-22T08:46:15.490Z,24.25
2022-10-22T08:48:46.944Z,24.44
2022-10-22T08:51:18.321Z,23.60
2022-10-22T08:53:54.999Z,25.14
2022-10-22T08:56:23.506Z,25.62
2022-10-22T08:58:56.649Z,25.46
2022-10-22T09:01:32.764Z,26.19
2022-10-22T09:04:04.677Z,26.44
2022-10-22T09:06:34.641Z,26.70
2022-10-22T09:09:06.503Z,26.94
2022-10-22T09:11:36.181Z,26.13
2022-10-22T09:14:04.419Z,25.77
2022-10-22T09:16:38.422Z,26.12
2022-10-22T09:19:16.683Z,26.04
2022-10-22T09:21:53.359Z,25.89
2022-10-22T09:24:32.171Z,24.94
2022-10-22T09:27:01.953Z,25.71
2022-10-22T09:29:34.066Z,25.74
2022-10-22T09:32:03.344Z,25.66
2022-10-22T09:34:31.202Z,25.52
2022-10-22T09:36:59.909Z,26.05
2022-10-22T09:39:29.591Z,25.90
2022-10-22T09:41:57.289Z,24.73
2022-10-22T09:44:25.207Z,24.61
2022-10-22T09:46:52.913Z,25.57
2022-10-22T09:49:23.954Z,25.98
2022-10-22T09:51:54.507Z,24.76
2022-10-22T09:54:24.470Z,25.24
2022-10-22T09:56:57.911Z,26.48
2022-10-22T09:59:29.277Z,26.69
2022-10-22T10:02:13.328Z,26.91
2022-10-22T10:04:50.882Z,27.19
2022-10-22T10:07:20.373Z,25.97
2022-10-22T10:09:48.560Z,26.08
2022-10-22T10:12:25.013Z,25.75
2022-10-22T10:15:01.851Z,24.77
2022-10-22T10:17:35.042Z,25.08
2022-10-22T10:20:17.150Z,24.68
2022-10-22T10:22:54.879Z,24.42
2022-10-22T10:25:44.112Z,24.00
2022-10-22T10:28:23.165Z,24.26
2022-10-22T10:30:56.076Z,25.40
2022-10-22T10:33:31.290Z,25.37
2022-10-22T10:36:05.124Z,25.90
2022-10-22T10:38:39.325Z,26.58
2022-10-22T10:41:14.966Z,26.79
2022-10-22T10:43:53.705Z,26.31
2022-10-22T10:46:26.821Z,26.75
2022-10-22T10:48:56.954Z,26.38
2022-10-22T10:51:39.373Z,25.38
2022-10-22T10:54:21.071Z,25.41
2022-10-22T10:56:53.010Z,26.13
2022-10-22T10:59:32.352Z,25.86
2022-10-22T11:02:35.029Z,26.12
2022-10-22T11:05:23.724Z,26.33
2022-10-22T11:07:57.168Z,28.28
2022-10-22T11:10:32.470Z,27.84
2022-10-22T11:13:05.010Z,28.15
2022-10-22T11:15:34.461Z,28.72
2022-10-22T11:18:09.338Z,28.63
2022-10-22T11:20:45.964Z,27.47
2022-10-22T11:23:20.529Z,27.14
2022-10-22T11:25:50.230Z,28.22
2022-10-22T11:28:21.336Z,28.12
2022-10-22T11:30:52.464Z,27.79
2022-10-22T11:33:23.456Z,27.93
2022-10-22T11:35:51.589Z,26.61
2022-10-22T11:38:23.882Z,28.62
2022-10-22T11:40:58.410Z,28.16
2022-10-22T11:43:32.914Z,29.21
2022-10-22T11:46:10.514Z,29.27
2022-10-22T11:48:39.330Z,29.14
2022-10-22T11:51:35.383Z,29.78
2022-10-22T11:54:04.679Z,30.01
2022-10-22T11:56:38.452Z,28.55
2022-10-22T11:59:13.957Z,27.60
2022-10-22T12:01:43.060Z,29.00
2022-10-22T12:04:23.187Z,29.68
2022-10-22T12:06:59.052Z,29.51
2022-10-22T12:09:30.258Z,28.83
2022-10-22T12:12:04.355Z,27.68
2022-10-22T12:14:35.357Z,28.56
2022-10-22T12:17:08.660Z,28.96
2022-10-22T12:19:38.401Z,29.32
2022-10-22T12:22:15.139Z,27.86
2022-10-22T12:24:45.585Z,27.41
2022-10-22T12:27:22.333Z,27.81
2022-10-22T12:29:56.033Z,28.64
2022-10-22T12:32:24.121Z,29.86
2022-10-22T12:34:53.145Z,30.28
2022-10-22T12:37:22.197Z,31.09
2022-10-22T12:39:49.970Z,30.06
2022-10-22T12:42:18.910Z,30.40
2022-10-22T12:44:46.641Z,31.02
2022-10-22T12:47:17.240Z,32.15
2022-10-22T12:49:47.062Z,30.33
2022-10-22T12:52:17.396Z,30.23
2022-10-22T12:54:48.230Z,32.71
2022-10-22T12:57:18.858Z,33.60
2022-10-22T12:59:49.928Z,32.17
2022-10-22T13:02:21.738Z,31.45
2022-10-22T13:05:15.162Z,31.78
2022-10-22T13:07:45.335Z,32.15
2022-10-22T13:10:20.745Z,33.53
2022-10-22T13:12:52.330Z,34.45
2022-10-22T13:15:22.412Z,33.56
2022-10-22T13:17:50.587Z,34.35
2022-10-22T13:20:21.580Z,33.65
2022-10-22T13:23:00.047Z,34.46
2022-10-22T13:25:33.880Z,32.77
2022-10-22T13:28:04.032Z,34.55
2022-10-22T13:30:33.518Z,35.15
2022-10-22T13:33:02.952Z,34.24
2022-10-22T13:35:34.318Z,32.13
2022-10-22T13:38:02.150Z,33.87
2022-10-22T13:40:31.357Z,33.98
2022-10-22T13:42:59.116Z,33.79
2022-10-22T13:45:26.883Z,32.98
2022-10-22T13:47:55.725Z,33.13
2022-10-22T13:50:23.434Z,33.44
2022-10-22T13:52:52.762Z,33.37
2022-10-22T13:55:23.321Z,35.11
2022-10-22T13:57:52.583Z,34.88
2022-10-22T14:00:21.735Z,35.01
2022-10-22T14:02:51.753Z,34.16
2022-10-22T14:05:20.591Z,34.56
2022-10-22T14:07:48.502Z,33.90
2022-10-22T14:10:19.250Z,34.36
2022-10-22T14:12:52.306Z,35.62
2022-10-22T14:15:24.804Z,35.42
2022-10-22T14:17:55.110Z,32.29
2022-10-22T14:20:24.341Z,34.82
2022-10-22T14:22:52.267Z,32.64
2022-10-22T14:25:21.672Z,32.37
2022-10-22T14:27:49.703Z,32.38
2022-10-22T14:30:18.450Z,34.57
2022-10-22T14:32:48.787Z,34.40
2022-10-22T14:35:18.461Z,34.33
2022-10-22T14:37:46.233Z,32.65
2022-10-22T14:40:15.512Z,32.97
2022-10-22T14:42:44.581Z,33.02
2022-10-22T14:45:16.979Z,32.06
2022-10-22T14:47:44.767Z,34.02
2022-10-22T14:50:14.545Z,34.72
2022-10-22T14:52:43.544Z,33.37
2022-10-22T14:55:11.907Z,30.13
2022-10-22T14:57:40.433Z,27.98
2022-10-22T15:00:11.429Z,30.84
2022-10-22T15:02:39.414Z,32.92
2022-10-22T15:05:08.532Z,31.31
2022-10-22T15:07:38.272Z,31.97
2022-10-22T15:10:07.979Z,33.83
2022-10-22T15:12:35.796Z,34.00
2022-10-22T15:15:03.709Z,33.90
2022-10-22T15:17:31.467Z,32.73
2022-10-22T15:20:00.526Z,33.17
2022-10-22T15:22:28.678Z,31.67
2022-10-22T15:24:57.773Z,32.09
2022-10-22T15:27:25.575Z,30.68
2022-10-22T15:29:53.610Z,29.97
2022-10-22T15:32:21.330Z,29.66
2022-10-22T15:34:49.321Z,29.65
2022-10-22T15:37:17.037Z,29.28
2022-10-22T15:39:44.743Z,28.69
2022-10-22T15:42:14.796Z,28.68
2022-10-22T15:44:43.043Z,28.29
2022-10-22T15:47:10.797Z,28.62
2022-10-22T15:49:41.706Z,28.21
2022-10-22T15:52:09.992Z,28.43
2022-10-22T15:54:37.725Z,28.42
2022-10-22T15:57:08.571Z,28.29
2022-10-22T15:59:37.796Z,28.14
2022-10-22T16:02:07.304Z,27.82
2022-10-22T16:04:35.058Z,27.68
2022-10-22T16:07:03.517Z,27.62
2022-10-22T16:09:31.382Z,26.67
2022-10-22T16:11:59.183Z,26.87
2022-10-22T16:14:28.671Z,26.65
2022-10-22T16:16:59.548Z,26.63
2022-10-22T16:19:27.319Z,27.18
2022-10-22T16:21:56.555Z,26.78
2022-10-22T16:24:24.480Z,26.95
2022-10-22T16:26:53.264Z,26.98
2022-10-22T16:29:21.085Z,26.66
2022-10-22T16:31:48.812Z,26.94
2022-10-22T16:34:17.868Z,27.00
2022-10-22T16:36:45.700Z,26.91
2022-10-22T16:39:13.536Z,26.46
2022-10-22T16:41:41.284Z,26.21
2022-10-22T16:44:09.064Z,26.32
2022-10-22T16:46:38.431Z,26.51
2022-10-22T16:49:07.621Z,26.73
2022-10-22T16:51:37.298Z,26.63
2022-10-22T16:54:08.120Z,26.56
2022-10-22T16:56:39.123Z,26.55
2022-10-22T16:59:07.342Z,26.36
2022-10-22T17:01:40.350Z,25.95
2022-10-22T17:04:08.839Z,26.20
2022-10-22T17:06:37.938Z,25.92
2022-10-22T17:09:06.001Z,25.97
2022-10-22T17:11:36.363Z,25.24
2022-10-22T17:14:06.087Z,25.22
2022-10-22T17:16:33.821Z,25.96
2022-10-22T17:19:03.955Z,25.66
2022-10-22T17:21:31.875Z,25.79
2022-10-22T17:24:00.932Z,25.61
2022-10-22T17:26:28.621Z,25.61
2022-10-22T17:28:56.396Z,25.65
2022-10-22T17:31:25.760Z,25.59
2022-10-22T17:33:55.532Z,25.72
2022-10-22T17:36:24.290Z,25.21
2022-10-22T17:38:53.668Z,25.48
2022-10-22T17:41:24.295Z,24.96
2022-10-22T17:43:52.230Z,24.96
2022-10-22T17:46:21.451Z,24.87
2022-10-22T17:48:52.834Z,25.43
2022-10-22T17:51:21.371Z,25.23
2022-10-22T17:53:50.189Z,25.35
2022-10-22T17:56:19.746Z,25.43
2022-10-22T17:58:48.933Z,25.58
2022-10-22T18:01:21.576Z,25.21
2022-10-22T18:03:49.840Z,24.88
2022-10-22T18:06:17.712Z,25.44
2022-10-22T18:08:45.860Z,25.36
2022-10-22T18:11:17.659Z,25.08
2022-10-22T18:13:47.559Z,25.10
2022-10-22T18:16:16.599Z,24.20
2022-10-22T18:18:46.223Z,25.21
2022-10-22T18:21:14.457Z,24.59
2022-10-22T18:23:42.387Z,24.63
2022-10-22T18:26:10.237Z,24.51
2022-10-22T18:28:38.216Z,24.47
2022-10-22T18:31:07.202Z,24.25
2022-10-22T18:33:36.900Z,24.92
2022-10-22T18:36:05.912Z,24.71
2022-10-22T18:38:34.043Z,25.41
2022-10-22T18:41:01.877Z,25.68
2022-10-22T18:43:29.629Z,24.77
2022-10-22T18:45:57.395Z,24.92
2022-10-22T18:48:25.266Z,24.89
2022-10-22T18:51:01.813Z,24.93
2022-10-22T18:53:29.771Z,24.91
2022-10-22T18:55:57.496Z,24.68
2022-10-22T18:58:25.281Z,25.04
2022-10-22T19:00:53.104Z,24.76
2022-10-22T19:03:20.957Z,24.66
2022-10-22T19:05:50.900Z,24.10
2022-10-22T19:08:20.834Z,23.58
2022-10-22T19:10:49.085Z,23.68
2022-10-22T19:13:18.857Z,24.70
2022-10-22T19:15:46.635Z,24.79
2022-10-22T19:18:15.051Z,24.39
2022-10-22T19:20:44.418Z,24.57
2022-10-22T19:23:12.193Z,24.39
2022-10-22T19:25:41.583Z,24.28
2022-10-22T19:28:09.341Z,24.13
2022-10-22T19:30:37.123Z,23.94
2022-10-22T19:33:04.913Z,23.71
2022-10-22T19:35:32.657Z,24.63
2022-10-22T19:38:00.437Z,24.43
2022-10-22T19:40:28.586Z,24.09
2022-10-22T19:42:57.630Z,24.60
2022-10-22T19:45:25.374Z,24.06
2022-10-22T19:47:53.116Z,24.03
2022-10-22T19:50:20.991Z,24.35
2022-10-22T19:52:48.716Z,24.54
2022-10-22T19:55:16.562Z,24.43
2022-10-22T19:57:44.622Z,24.15
2022-10-22T20:00:14.770Z,24.51
2022-10-22T20:02:42.636Z,23.80
2022-10-22T20:05:10.970Z,23.53
2022-10-22T20:07:38.977Z,23.64
2022-10-22T20:10:07.519Z,23.44
2022-10-22T20:12:35.328Z,23.56
2022-10-22T20:15:04.337Z,23.32
2022-10-22T20:17:33.953Z,23.24
2022-10-22T20:20:01.674Z,23.53
2022-10-22T20:22:29.398Z,21.83
2022-10-22T20:24:57.076Z,22.13
2022-10-22T20:27:25.291Z,23.58
2022-10-22T20:29:53.300Z,23.28
2022-10-22T20:32:22.056Z,23.93
2022-10-22T20:34:51.120Z,23.47
2022-10-22T20:37:18.843Z,24.48
2022-10-22T20:39:46.530Z,24.39
2022-10-22T20:42:15.399Z,24.63
2022-10-22T20:44:43.148Z,25.10
2022-10-22T20:47:13.630Z,25.35
2022-10-22T20:49:41.594Z,24.93
2022-10-22T20:52:10.709Z,24.68
2022-10-22T20:54:41.446Z,24.32
2022-10-22T20:57:09.550Z,24.38
2022-10-22T20:59:37.346Z,24.44
2022-10-22T21:02:05.465Z,24.57
2022-10-22T21:04:33.496Z,25.25
2022-10-22T21:07:02.894Z,24.27
2022-10-22T21:09:34.162Z,23.36
2022-10-22T21:12:03.490Z,23.87
2022-10-22T21:14:31.344Z,23.17
2022-10-22T21:17:00.216Z,23.32
2022-10-22T21:19:28.709Z,23.37
2022-10-22T21:21:56.408Z,23.35
2022-10-22T21:24:26.209Z,23.75
2022-10-22T21:26:55.264Z,23.80
2022-10-22T21:29:23.018Z,24.01
2022-10-22T21:31:50.693Z,23.27
2022-10-22T21:34:18.455Z,23.35
2022-10-22T21:39:14.948Z,22.80
2022-10-22T21:41:42.668Z,23.37
2022-10-22T21:44:11.783Z,22.40
2022-10-22T21:46:39.497Z,23.12
2022-10-22T21:49:07.261Z,22.77
2022-10-22T21:51:38.085Z,23.13
2022-10-22T21:54:06.284Z,22.93
2022-10-22T21:56:36.600Z,22.16
2022-10-22T21:59:05.236Z,22.81
2022-10-22T22:01:34.766Z,23.12
2022-10-22T22:04:04.219Z,23.19
2022-10-22T22:06:33.670Z,22.51
2022-10-22T22:09:02.990Z,23.28
2022-10-22T22:11:31.366Z,23.43
2022-10-22T22:13:59.830Z,23.69
2022-10-22T22:16:29.134Z,22.58
2022-10-22T22:19:00.451Z,23.32
2022-10-22T22:21:28.580Z,23.70
2022-10-22T22:23:56.497Z,23.28
2022-10-22T22:26:28.591Z,23.30
2022-10-22T22:28:58.535Z,23.46
2022-10-22T22:31:27.924Z,23.15
2022-10-22T22:34:01.076Z,23.42
2022-10-22T22:36:28.925Z,23.24
2022-10-22T22:38:56.943Z,22.86
2022-10-22T22:41:24.936Z,22.79
2022-10-22T22:43:52.770Z,22.80
2022-10-22T22:46:20.608Z,23.28
2022-10-22T22:48:48.670Z,23.00
2022-10-22T22:51:17.952Z,23.03
2022-10-22T22:53:45.778Z,23.56
2022-10-22T22:56:15.166Z,23.42
2022-10-22T22:58:43.034Z,22.85
2022-10-22T23:01:15.774Z,23.06
2022-10-22T23:03:45.612Z,22.21
2022-10-22T23:06:13.737Z,22.10
2022-10-22T23:08:43.222Z,22.18
2022-10-22T23:11:12.427Z,22.40
2022-10-22T23:13:40.623Z,22.33
2022-10-22T23:16:09.836Z,22.13
2022-10-22T23:18:37.502Z,22.59
2022-10-22T23:21:06.501Z,22.18
2022-10-22T23:23:34.589Z,22.14
2022-10-22T23:26:03.954Z,22.33
2022-10-22T23:28:31.771Z,21.64
2022-10-22T23:30:59.497Z,21.68
2022-10-22T23:33:27.576Z,21.95
2022-10-22T23:35:55.114Z,21.15
2022-10-22T23:38:22.652Z,21.85
2022-10-22T23:40:54.606Z,21.36
2022-10-22T23:43:23.716Z,21.98
2022-10-22T23:45:51.475Z,21.55
2022-10-22T23:48:19.656Z,21.50
2022-10-22T23:50:47.709Z,21.71
2022-10-22T23:53:15.706Z,21.47
2022-10-22T23:55:44.575Z,21.56
2022-10-22T23:58:12.690Z,21.09
